createdAt,value
2022-10-22T00:00:56.956Z,100419.63
2022-10-22T00:03:24.909Z,100416.13
2022-10-22T00:05:52.708Z,100416.91
2022-10-22T00:08:21.788Z,100414.28
2022-10-22T00:10:49.521Z,100409.97
2022-10-22T00:13:17.821Z,100419.66
2022-10-22T00:15:45.730Z,100414.56
2022-10-22T00:18:13.501Z,100403.44
2022-10-22T00:20:41.521Z,100401.00
2022-10-22T00:23:09.315Z,100401.78
2022-10-22T00:25:38.407Z,100398.25
2022-10-22T00:28:06.490Z,100402.84
2022-10-22T00:30:34.418Z,100395.81
2022-10-22T00:33:02.129Z,100392.41
2022-10-22T00:35:29.988Z,100394.94
2022-10-22T00:37:58.045Z,100392.19
2022-10-22T00:40:26.265Z,100403.44
2022-10-22T00:42:55.407Z,100406.81
2022-10-22T00:45:25.622Z,100406.88
2022-10-22T00:47:58.398Z,100398.06
2022-10-22T00:50:30.797Z,100396.28
2022-10-22T00:52:59.391Z,100399.69
2022-10-22T00:55:29.003Z,100402.19
2022-10-22T00:57:59.489Z,100402.03
2022-10-22T01:00:27.251Z,100381.84
2022-10-22T01:02:55.668Z,100383.53
2022-10-22T01:05:23.890Z,100388.00
2022-10-22T01:07:54.156Z,100385.31
2022-10-22T01:10:35.962Z,100377.63
2022-10-22T01:13:17.963Z,100372.47
2022-10-22T01:15:54.166Z,100379.34
2022-10-22T01:18:30.246Z,100374.88
2022-10-22T01:21:06.702Z,100381.03
2022-10-22T01:23:53.967Z,100382.88
2022-10-22T01:26:29.351Z,100378.69
2022-10-22T01:29:08.098Z,100380.38
2022-10-22T01:31:39.573Z,100378.59
2022-10-22T01:34:09.312Z,100370.72
2022-10-22T01:36:39.830Z,100375.22
2022-10-22T01:39:09.381Z,100378.72
2022-10-22T01:41:37.518Z,100373.47
2022-10-22T01:44:06.895Z,100378.78
2022-10-22T01:46:34.946Z,100383.38
2022-10-22T01:49:18.331Z,100371.19
2022-10-22T01:51:57.570Z,100374.84
2022-10-22T01:54:34.576Z,100380.09
2022-10-22T01:57:14.026Z,100384.53
2022-10-22T01:59:52.464Z,100395.72
2022-10-22T02:02:33.323Z,100394.75
2022-10-22T02:05:06.512Z,100394.06
2022-10-22T02:07:38.826Z,100395.72
2022-10-22T02:10:10.247Z,100383.50
2022-10-22T02:12:39.910Z,100383.50
2022-10-22T02:15:11.677Z,100391.47
2022-10-22T02:17:40.798Z,100390.56
2022-10-22T02:20:13.775Z,100382.72
2022-10-22T02:22:42.441Z,100381.97
2022-10-22T02:25:13.191Z,100376.78
2022-10-22T02:27:45.535Z,100379.31
2022-10-22T02:30:18.241Z,100373.16
2022-10-22T02:32:52.569Z,100376.59
2022-10-22T02:35:25.857Z,100383.66
2022-10-22T02:37:56.180Z,100372.31
2022-10-22T02:40:25.134Z,100376.78
2022-10-22T02:42:53.898Z,100378.44
2022-10-22T02:45:23.747Z,100374.94
2022-10-22T02:47:53.245Z,100379.97
2022-10-22T02:50:20.926Z,100371.09
2022-10-22T02:52:48.684Z,100379.06
2022-10-22T02:55:16.710Z,100386.66
2022-10-22T02:57:44.524Z,100382.19
2022-10-22T03:00:13.477Z,100395.31
2022-10-22T03:02:42.570Z,100392.78
2022-10-22T03:05:10.860Z,100400.81
2022-10-22T03:07:39.249Z,100399.22
2022-10-22T03:10:08.299Z,100398.34
2022-10-22T03:12:35.998Z,100404.41
2022-10-22T03:15:03.888Z,100399.13
2022-10-22T03:17:31.817Z,100407.00
2022-10-22T03:20:00.929Z,100410.47
2022-10-22T03:22:33.428Z,100408.75
2022-10-22T03:25:05.320Z,100407.97
2022-10-22T03:27:33.129Z,100405.22
2022-10-22T03:30:00.895Z,100411.28
2022-10-22T03:32:28.759Z,100416.47
2022-10-22T03:34:56.545Z,100419.16
2022-10-22T03:37:27.103Z,100420.25
2022-10-22T03:39:56.093Z,100426.31
2022-10-22T03:42:24.383Z,100429.84
2022-10-22T03:44:52.343Z,100422.09
2022-10-22T03:47:20.136Z,100430.03
2022-10-22T03:49:47.866Z,100429.19
2022-10-22T03:52:16.275Z,100428.28
2022-10-22T03:54:45.721Z,100426.66
2022-10-22T03:57:13.492Z,100429.16
2022-10-22T03:59:44.004Z,100424.88
2022-10-22T04:02:13.307Z,100433.06
2022-10-22T04:04:41.221Z,100433.81
2022-10-22T04:07:09.573Z,100432.03
2022-10-22T04:09:37.540Z,100433.66
2022-10-22T04:12:07.953Z,100433.75
2022-10-22T04:14:36.400Z,100431.13
2022-10-22T04:17:04.593Z,100439.06
2022-10-22T04:19:32.340Z,100444.63
2022-10-22T04:22:00.420Z,100444.75
2022-10-22T04:24:29.509Z,100443.16
2022-10-22T04:26:57.492Z,100457.88
2022-10-22T04:29:27.452Z,100455.41
2022-10-22T04:31:55.233Z,100453.59
2022-10-22T04:34:23.064Z,100455.34
2022-10-22T04:36:50.803Z,100455.53
2022-10-22T04:39:18.656Z,100455.59
2022-10-22T04:41:46.394Z,100463.47
2022-10-22T04:44:16.808Z,100454.69
2022-10-22T04:46:46.898Z,100456.38
2022-10-22T04:49:14.703Z,100456.31
2022-10-22T04:51:42.503Z,100458.91
2022-10-22T04:54:10.203Z,100462.38
2022-10-22T04:56:38.431Z,100471.19
2022-10-22T04:59:08.351Z,100474.66
2022-10-22T05:01:41.715Z,100473.06
2022-10-22T05:04:14.175Z,100476.75
2022-10-22T05:06:42.099Z,100477.56
2022-10-22T05:09:14.297Z,100477.56
2022-10-22T05:11:45.386Z,100483.66
2022-10-22T05:14:14.094Z,100475.81
2022-10-22T05:16:42.091Z,100475.72
2022-10-22T05:19:10.065Z,100473.94
2022-10-22T05:21:39.440Z,100482.69
2022-10-22T05:24:08.163Z,100479.19
2022-10-22T05:26:35.872Z,100483.56
2022-10-22T05:29:04.003Z,100481.75
2022-10-22T05:31:31.814Z,100490.66
2022-10-22T05:33:59.648Z,100481.94
2022-10-22T05:36:28.086Z,100482.91
2022-10-22T05:38:58.825Z,100489.00
2022-10-22T05:41:28.090Z,100480.38
2022-10-22T05:43:57.193Z,100497.81
2022-10-22T05:46:26.703Z,100504.81
2022-10-22T05:48:56.950Z,100513.69
2022-10-22T05:51:25.435Z,100515.44
2022-10-22T05:53:54.551Z,100519.06
2022-10-22T05:56:24.021Z,100534.88
2022-10-22T05:58:52.583Z,100538.44
2022-10-22T06:01:21.996Z,100538.59
2022-10-22T06:03:50.525Z,100554.41
2022-10-22T06:06:22.423Z,100558.84
2022-10-22T06:08:52.407Z,100560.50
2022-10-22T06:11:22.153Z,100560.56
2022-10-22T06:13:52.165Z,100567.44
2022-10-22T06:16:20.472Z,100570.06
2022-10-22T06:18:48.315Z,100569.16
2022-10-22T06:21:17.541Z,100573.47
2022-10-22T06:23:45.507Z,100577.91
2022-10-22T06:26:13.460Z,100581.56
2022-10-22T06:28:41.203Z,100585.72
2022-10-22T06:31:11.292Z,100580.25
2022-10-22T06:33:42.296Z,100588.88
2022-10-22T06:36:12.825Z,100588.63
2022-10-22T06:38:41.511Z,100597.06
2022-10-22T06:41:11.641Z,100600.63
2022-10-22T06:43:39.751Z,100611.38
2022-10-22T06:46:13.704Z,100603.19
2022-10-22T06:48:44.210Z,100608.34
2022-10-22T06:51:13.053Z,100608.34
2022-10-22T06:53:41.805Z,100622.06
2022-10-22T06:56:11.750Z,100631.66
2022-10-22T06:58:39.685Z,100635.13
2022-10-22T07:01:11.387Z,100633.97
2022-10-22T07:03:40.236Z,100632.31
2022-10-22T07:06:09.842Z,100641.06
2022-10-22T07:08:38.076Z,100633.88
2022-10-22T07:11:11.355Z,100638.25
2022-10-22T07:13:39.557Z,100638.06
2022-10-22T07:16:08.577Z,100635.34
2022-10-22T07:18:39.257Z,100640.34
2022-10-22T07:21:08.040Z,100646.34
2022-10-22T07:23:35.962Z,100647.22
2022-10-22T07:26:04.164Z,100651.81
2022-10-22T07:28:33.442Z,100647.22
2022-10-22T07:31:01.258Z,100665.50
2022-10-22T07:33:29.049Z,100656.91
2022-10-22T07:36:01.416Z,100671.78
2022-10-22T07:38:29.926Z,100672.84
2022-10-22T07:40:57.694Z,100675.88
2022-10-22T07:43:25.807Z,100673.78
2022-10-22T07:45:55.664Z,100683.22
2022-10-22T07:48:23.556Z,100686.53
2022-10-22T07:50:52.054Z,100695.19
2022-10-22T07:53:22.061Z,100700.25
2022-10-22T07:55:50.468Z,100697.53
2022-10-22T07:58:18.800Z,100698.91
2022-10-22T08:00:47.531Z,100710.03
2022-10-22T08:03:18.460Z,100715.09
2022-10-22T08:05:46.919Z,100719.56
2022-10-22T08:08:16.721Z,100720.03
2022-10-22T08:10:46.884Z,100724.81
2022-10-22T08:13:15.209Z,100726.97
2022-10-22T08:18:16.546Z,100735.25
2022-10-22T08:20:44.361Z,100737.34
2022-10-22T08:23:12.133Z,100735.66
2022-10-22T08:25:39.883Z,100740.38
2022-10-22T08:28:09.004Z,100740.31
2022-10-22T08:30:38.548Z,100738.88
2022-10-22T08:33:07.101Z,100745.03
2022-10-22T08:35:35.309Z,100750.78
2022-10-22T08:38:02.986Z,100748.06
2022-10-22T08:40:34.481Z,100747.97
2022-10-22T08:43:35.555Z,100749.41
2022-10-22T08:46:13.577Z,100756.84
2022-10-22T08:48:47.608Z,100753.97
2022-10-22T08:51:18.032Z,100758.22
2022-10-22T08:53:56.244Z,100760.19
2022-10-22T08:56:24.916Z,100762.84
2022-10-22T08:59:00.080Z,100770.38
2022-10-22T09:01:36.180Z,100772.34
2022-10-22T09:04:12.224Z,100781.75
2022-10-22T09:06:44.211Z,100775.56
2022-10-22T09:09:16.163Z,100782.72
2022-10-22T09:11:47.054Z,100779.34
2022-10-22T09:14:18.788Z,100780.38
2022-10-22T09:17:06.472Z,100785.69
2022-10-22T09:19:43.069Z,100788.47
2022-10-22T09:22:22.156Z,100786.75
2022-10-22T09:24:53.609Z,100790.66
2022-10-22T09:27:27.039Z,100790.75
2022-10-22T09:29:56.294Z,100789.69
2022-10-22T09:32:25.009Z,100788.25
2022-10-22T09:34:57.815Z,100788.25
2022-10-22T09:37:29.125Z,100796.78
2022-10-22T09:39:59.844Z,100794.06
2022-10-22T09:42:28.107Z,100799.44
2022-10-22T09:44:59.769Z,100802.31
2022-10-22T09:47:42.630Z,100797.50
2022-10-22T09:50:27.187Z,100800.00
2022-10-22T09:53:05.908Z,100799.38
2022-10-22T09:55:33.743Z,100801.75
2022-10-22T09:58:01.865Z,100797.44
2022-10-22T10:00:31.321Z,100812.91
2022-10-22T10:03:01.208Z,100811.34
2022-10-22T10:05:31.787Z,100809.09
2022-10-22T10:08:01.720Z,100811.13
2022-10-22T10:10:37.555Z,100807.84
2022-10-22T10:13:24.049Z,100803.47
2022-10-22T10:15:59.063Z,100819.78
2022-10-22T10:18:35.955Z,100816.50
2022-10-22T10:23:49.552Z,100829.84
2022-10-22T10:26:25.349Z,100822.28
2022-10-22T10:29:24.159Z,100833.00
2022-10-22T10:32:13.710Z,100837.94
2022-10-22T10:34:49.181Z,100828.59
2022-10-22T10:37:23.292Z,100834.66
2022-10-22T10:40:16.590Z,100841.97
2022-10-22T10:42:50.269Z,100847.63
2022-10-22T10:45:23.017Z,100847.94
2022-10-22T10:48:16.243Z,100848.59
2022-10-22T10:50:55.263Z,100846.97
2022-10-22T10:53:30.843Z,100849.81
2022-10-22T10:56:07.119Z,100854.38
2022-10-22T10:58:44.156Z,100846.59
2022-10-22T11:01:21.976Z,100849.06
2022-10-22T11:04:15.270Z,100854.63
2022-10-22T11:06:45.673Z,100852.31
2022-10-22T11:09:24.379Z,100850.47
2022-10-22T11:11:58.013Z,100848.38
2022-10-22T11:14:33.372Z,100858.19
2022-10-22T11:17:06.062Z,100861.44
2022-10-22T11:19:50.921Z,100855.34
2022-10-22T11:22:26.962Z,100860.72
2022-10-22T11:25:01.497Z,100859.78
2022-10-22T11:27:38.102Z,100862.00
2022-10-22T11:30:13.504Z,100855.50
2022-10-22T11:32:44.763Z,100859.25
2022-10-22T11:35:23.478Z,100856.19
2022-10-22T11:37:56.553Z,100860.50
2022-10-22T11:40:34.765Z,100853.19
2022-10-22T11:43:06.302Z,100856.84
2022-10-22T11:45:38.313Z,100856.91
2022-10-22T11:48:18.810Z,100850.84
2022-10-22T11:50:52.929Z,100863.16
2022-10-22T11:53:31.003Z,100857.13
2022-10-22T11:56:00.030Z,100858.41
2022-10-22T11:58:34.447Z,100862.47
2022-10-22T12:01:41.986Z,100861.59
2022-10-22T12:04:23.982Z,100853.81
2022-10-22T12:07:01.886Z,100863.66
2022-10-22T12:09:32.737Z,100859.22
2022-10-22T12:12:15.558Z,100860.88
2022-10-22T12:14:54.658Z,100866.84
2022-10-22T12:17:23.784Z,100856.00
2022-10-22T12:20:01.981Z,100866.78
2022-10-22T12:22:33.781Z,100860.28
2022-10-22T12:25:03.886Z,100853.50
2022-10-22T12:27:36.997Z,100860.50
2022-10-22T12:30:19.740Z,100853.25
2022-10-22T12:32:47.573Z,100855.13
2022-10-22T12:35:18.731Z,100862.34
2022-10-22T12:37:51.323Z,100855.47
2022-10-22T12:40:21.289Z,100857.56
2022-10-22T12:42:51.069Z,100844.63
2022-10-22T12:45:18.892Z,100841.75
2022-10-22T12:47:47.820Z,100842.06
2022-10-22T12:50:21.145Z,100835.31
2022-10-22T12:52:50.658Z,100839.72
2022-10-22T12:55:20.576Z,100840.00
2022-10-22T12:57:49.171Z,100833.19
2022-10-22T13:00:22.481Z,100830.44
2022-10-22T13:02:50.520Z,100830.91
2022-10-22T13:05:23.665Z,100827.84
2022-10-22T13:07:54.694Z,100827.78
2022-10-22T13:10:26.615Z,100827.81
2022-10-22T13:12:56.969Z,100823.78
2022-10-22T13:15:37.072Z,100826.06
2022-10-22T13:18:07.869Z,100829.88
2022-10-22T13:20:37.343Z,100833.84
2022-10-22T13:23:07.107Z,100836.50
2022-10-22T13:25:37.247Z,100831.84
2022-10-22T13:28:20.910Z,100829.53
2022-10-22T13:30:54.201Z,100828.81
2022-10-22T13:33:26.574Z,100829.59
2022-10-22T13:35:56.230Z,100830.25
2022-10-22T13:38:26.975Z,100819.03
2022-10-22T13:40:55.510Z,100824.97
2022-10-22T13:43:23.971Z,100814.50
2022-10-22T13:45:55.272Z,100808.34
2022-10-22T13:48:25.730Z,100819.72
2022-10-22T13:50:54.558Z,100817.81
2022-10-22T13:53:26.352Z,100813.38
2022-10-22T13:55:54.572Z,100812.25
2022-10-22T13:58:24.953Z,100813.47
2022-10-22T14:00:55.583Z,100810.19
2022-10-22T14:03:27.353Z,100810.53
2022-10-22T14:05:55.185Z,100820.94
2022-10-22T14:08:26.539Z,100825.38
2022-10-22T14:10:55.089Z,100822.47
2022-10-22T14:13:23.464Z,100824.88
2022-10-22T14:15:53.132Z,100823.31
2022-10-22T14:18:26.438Z,100821.53
2022-10-22T14:20:56.037Z,100822.38
2022-10-22T14:23:27.697Z,100821.69
2022-10-22T14:25:56.265Z,100824.31
2022-10-22T14:28:24.053Z,100823.66
2022-10-22T14:30:52.510Z,100823.63
2022-10-22T14:33:27.248Z,100826.03
2022-10-22T14:35:59.222Z,100820.47
2022-10-22T14:38:28.696Z,100827.25
2022-10-22T14:40:56.674Z,100826.00
2022-10-22T14:43:26.909Z,100822.25
2022-10-22T14:45:54.842Z,100828.56
2022-10-22T14:48:22.795Z,100821.53
2022-10-22T14:50:50.919Z,100823.88
2022-10-22T14:53:18.601Z,100829.72
2022-10-22T14:55:49.077Z,100832.84
2022-10-22T14:58:17.137Z,100827.47
2022-10-22T15:00:44.933Z,100825.94
2022-10-22T15:03:13.024Z,100831.44
2022-10-22T15:05:43.360Z,100831.34
2022-10-22T15:08:11.825Z,100831.22
2022-10-22T15:10:40.158Z,100830.44
2022-10-22T15:13:09.445Z,100830.69
2022-10-22T15:15:39.919Z,100835.31
2022-10-22T15:18:07.887Z,100829.91
2022-10-22T15:20:35.698Z,100828.03
2022-10-22T15:23:03.525Z,100832.72
2022-10-22T15:25:31.351Z,100827.84
2022-10-22T15:28:03.359Z,100833.59
2022-10-22T15:30:36.649Z,100840.91
2022-10-22T15:33:04.539Z,100837.72
2022-10-22T15:35:32.253Z,100841.47
2022-10-22T15:37:59.987Z,100832.50
2022-10-22T15:40:27.798Z,100841.63
2022-10-22T15:42:55.491Z,100842.94
2022-10-22T15:45:25.156Z,100845.34
2022-10-22T15:47:54.201Z,100837.75
2022-10-22T15:50:21.876Z,100828.31
2022-10-22T15:52:49.594Z,100830.97
2022-10-22T15:55:17.391Z,100839.06
2022-10-22T15:57:45.271Z,100838.66
2022-10-22T16:00:14.144Z,100842.47
2022-10-22T16:02:42.842Z,100845.97
2022-10-22T16:05:12.297Z,100853.97
2022-10-22T16:07:40.317Z,100847.19
2022-10-22T16:10:12.576Z,100845.91
2022-10-22T16:12:41.311Z,100850.19
2022-10-22T16:15:10.517Z,100850.03
2022-10-22T16:17:38.254Z,100844.72
2022-10-22T16:20:06.922Z,100845.06
2022-10-22T16:22:35.995Z,100848.72
2022-10-22T16:25:03.901Z,100841.06
2022-10-22T16:27:31.648Z,100847.53
2022-10-22T16:29:59.487Z,100845.97
2022-10-22T16:32:27.269Z,100848.16
2022-10-22T16:34:54.930Z,100846.06
2022-10-22T16:37:22.624Z,100853.97
2022-10-22T16:39:51.735Z,100851.22
2022-10-22T16:42:19.457Z,100852.66
2022-10-22T16:44:47.171Z,100855.31
2022-10-22T16:47:15.377Z,100849.63
2022-10-22T16:49:43.129Z,100853.50
2022-10-22T16:52:10.849Z,100858.09
2022-10-22T16:54:38.597Z,100858.97
2022-10-22T16:57:07.703Z,100860.94
2022-10-22T16:59:35.757Z,100862.13
2022-10-22T17:04:32.235Z,100870.91
2022-10-22T17:06:59.945Z,100862.59
2022-10-22T17:09:27.847Z,100861.94
2022-10-22T17:11:56.137Z,100871.34
2022-10-22T17:14:25.308Z,100871.47
2022-10-22T17:16:53.933Z,100881.91
2022-10-22T17:19:22.697Z,100885.59
2022-10-22T17:21:51.376Z,100887.50
2022-10-22T17:24:19.391Z,100888.63
2022-10-22T17:26:47.632Z,100889.66
2022-10-22T17:29:15.344Z,100883.63
2022-10-22T17:31:44.483Z,100893.75
2022-10-22T17:34:17.512Z,100894.25
2022-10-22T17:36:45.901Z,100889.44
2022-10-22T17:39:18.593Z,100887.75
2022-10-22T17:41:46.853Z,100895.81
2022-10-22T17:44:16.542Z,100889.72
2022-10-22T17:46:45.932Z,100886.53
2022-10-22T17:49:18.103Z,100889.38
2022-10-22T17:51:46.195Z,100893.03
2022-10-22T17:54:14.700Z,100897.53
2022-10-22T17:56:42.444Z,100891.16
2022-10-22T17:59:12.797Z,100898.19
2022-10-22T18:01:45.230Z,100892.16
2022-10-22T18:04:17.010Z,100895.59
2022-10-22T18:06:46.616Z,100895.84
2022-10-22T18:09:18.461Z,100894.19
2022-10-22T18:11:47.507Z,100894.50
2022-10-22T18:14:15.622Z,100903.25
2022-10-22T18:16:43.420Z,100896.28
2022-10-22T18:19:12.251Z,100905.25
2022-10-22T18:21:41.329Z,100896.72
2022-10-22T18:24:10.356Z,100897.97
2022-10-22T18:26:38.072Z,100911.44
2022-10-22T18:29:05.775Z,100904.31
2022-10-22T18:31:33.618Z,100908.72
2022-10-22T18:34:01.373Z,100908.72
2022-10-22T18:36:29.287Z,100902.00
2022-10-22T18:39:00.193Z,100902.00
2022-10-22T18:41:29.331Z,100903.75
2022-10-22T18:43:58.335Z,100903.75
2022-10-22T18:46:27.250Z,100903.25
2022-10-22T18:48:55.971Z,100900.63
2022-10-22T18:51:25.441Z,100898.22
2022-10-22T18:54:05.376Z,100901.03
2022-10-22T18:56:41.533Z,100907.13
2022-10-22T18:59:16.099Z,100890.63
2022-10-22T19:01:43.940Z,100889.69
2022-10-22T19:04:12.996Z,100894.16
2022-10-22T19:06:45.089Z,100887.22
2022-10-22T19:09:14.533Z,100888.84
2022-10-22T19:11:44.754Z,100883.53
2022-10-22T19:14:14.602Z,100873.19
2022-10-22T19:16:42.637Z,100876.69
2022-10-22T19:19:10.344Z,100883.72
2022-10-22T19:21:38.910Z,100875.06
2022-10-22T19:24:07.723Z,100884.69
2022-10-22T19:26:35.706Z,100882.16
2022-10-22T19:29:05.257Z,100885.75
2022-10-22T19:31:33.492Z,100888.44
2022-10-22T19:34:03.152Z,100889.38
2022-10-22T19:36:32.513Z,100880.72
2022-10-22T19:39:01.700Z,100889.53
2022-10-22T19:41:31.467Z,100885.44
2022-10-22T19:44:00.888Z,100891.50
2022-10-22T19:46:32.422Z,100892.38
2022-10-22T19:49:00.846Z,100880.25
2022-10-22T19:51:30.734Z,100876.25
2022-10-22T19:54:00.461Z,100882.56
2022-10-22T19:56:28.829Z,100880.56
2022-10-22T19:58:56.617Z,100878.00
2022-10-22T20:01:24.726Z,100884.13
2022-10-22T20:03:54.411Z,100887.72
2022-10-22T20:06:23.147Z,100894.66
2022-10-22T20:08:53.775Z,100899.09
2022-10-22T20:11:26.367Z,100897.50
2022-10-22T20:13:54.927Z,100901.91
2022-10-22T20:16:25.087Z,100902.78
2022-10-22T20:18:54.545Z,100901.94
2022-10-22T20:21:22.685Z,100900.16
2022-10-22T20:23:54.062Z,100896.69
2022-10-22T20:26:24.255Z,100905.34
2022-10-22T20:28:53.271Z,100894.81
2022-10-22T20:31:24.016Z,100885.19
2022-10-22T20:33:52.184Z,100898.38
2022-10-22T20:36:23.643Z,100904.47
2022-10-22T20:38:52.578Z,100902.00
2022-10-22T20:41:22.536Z,100904.00
2022-10-22T20:43:52.765Z,100904.78
2022-10-22T20:46:23.360Z,100899.38
2022-10-22T20:48:53.144Z,100895.09
2022-10-22T20:51:22.584Z,100895.16
2022-10-22T20:53:51.133Z,100897.78
2022-10-22T20:56:19.552Z,100905.75
2022-10-22T20:58:48.950Z,100898.84
2022-10-22T21:01:21.424Z,100897.16
2022-10-22T21:03:50.004Z,100897.97
2022-10-22T21:06:20.787Z,100902.59
2022-10-22T21:08:50.318Z,100908.59
2022-10-22T21:11:18.182Z,100904.34
2022-10-22T21:13:45.944Z,100899.91
2022-10-22T21:16:15.253Z,100899.00
2022-10-22T21:18:43.147Z,100898.06
2022-10-22T21:21:11.649Z,100905.03
2022-10-22T21:23:39.968Z,100905.06
2022-10-22T21:26:09.124Z,100899.03
2022-10-22T21:28:37.946Z,100909.53
2022-10-22T21:31:07.311Z,100906.09
2022-10-22T21:33:37.601Z,100908.66
2022-10-22T21:36:06.920Z,100906.00
2022-10-22T21:38:35.987Z,100905.22
2022-10-22T21:41:06.162Z,100905.31
2022-10-22T21:43:37.345Z,100897.69
2022-10-22T21:46:08.076Z,100898.50
2022-10-22T21:48:37.088Z,100901.09
2022-10-22T21:51:09.948Z,100904.59
2022-10-22T21:53:38.378Z,100903.81
2022-10-22T21:56:07.482Z,100904.75
2022-10-22T21:58:37.264Z,100894.41
2022-10-22T22:01:05.247Z,100903.34
2022-10-22T22:03:33.100Z,100899.91
2022-10-22T22:06:01.675Z,100892.09
2022-10-22T22:08:29.998Z,100892.19
2022-10-22T22:11:02.307Z,100889.72
2022-10-22T22:13:30.371Z,100885.16
2022-10-22T22:16:02.933Z,100883.50
2022-10-22T22:18:31.021Z,100876.66
2022-10-22T22:20:59.551Z,100875.66
2022-10-22T22:23:27.761Z,100871.31
2022-10-22T22:25:59.424Z,100878.47
2022-10-22T22:28:27.268Z,100879.50
2022-10-22T22:30:54.999Z,100882.22
2022-10-22T22:33:24.145Z,100879.66
2022-10-22T22:35:52.087Z,100880.53
2022-10-22T22:38:19.805Z,100877.03
2022-10-22T22:40:47.537Z,100882.44
2022-10-22T22:43:15.233Z,100879.88
2022-10-22T22:45:42.997Z,100871.16
2022-10-22T22:48:10.721Z,100872.97
2022-10-22T22:50:39.874Z,100870.34
2022-10-22T22:53:07.561Z,100872.88
2022-10-22T22:55:35.415Z,100867.66
2022-10-22T22:58:03.091Z,100866.75
2022-10-22T23:00:31.122Z,100872.03
2022-10-22T23:02:58.850Z,100872.88
2022-10-22T23:05:26.550Z,100869.44
2022-10-22T23:07:55.636Z,100865.09
2022-10-22T23:10:23.433Z,100867.72
2022-10-22T23:12:51.063Z,100859.78
2022-10-22T23:15:18.752Z,100861.66
2022-10-22T23:17:46.623Z,100865.97
2022-10-22T23:20:14.335Z,100854.53
2022-10-22T23:22:42.516Z,100862.41
2022-10-22T23:25:11.923Z,100858.09
2022-10-22T23:27:39.817Z,100859.88
2022-10-22T23:30:09.220Z,100862.50
2022-10-22T23:32:37.158Z,100851.22
2022-10-22T23:35:05.256Z,100851.25
2022-10-22T23:37:32.977Z,100851.25
2022-10-22T23:40:00.656Z,100846.88
2022-10-22T23:42:29.725Z,100848.63
2022-10-22T23:44:57.868Z,100853.81
2022-10-22T23:47:25.639Z,100858.31
2022-10-22T23:49:53.479Z,100853.16
2022-10-22T23:52:21.096Z,100854.03
2022-10-22T23:54:49.733Z,100855.91
2022-10-22T23:57:17.510Z,100842.00
2022-10-22T23:59:46.645Z,100855.06
